sensor_id;sensor_type;location;lat;lon;timestamp;temperature;humidity
9828;DHT22;4953;48.952;9.442;2022-12-18T05:00:35;-7.50;99.90
9828;DHT22;4953;48.952;9.442;2022-12-18T05:03:02;-7.40;99.90
9828;DHT22;4953;48.952;9.442;2022-12-18T05:05:28;-7.50;99.90
9828;DHT22;4953;48.952;9.442;2022-12-18T05:07:55;-7.40;99.90
9828;DHT22;4953;48.952;9.442;2022-12-18T05:10:22;-7.40;99.90
9828;DHT22;4953;48.952;9.442;2022-12-18T05:12:49;-7.50;99.90
9828;DHT22;4953;48.952;9.442;2022-12-18T05:15:26;-7.40;99.90
9828;DHT22;4953;48.952;9.442;2022-12-18T05:17:54;-7.40;99.90
9828;DHT22;4953;48.952;9.442;2022-12-18T05:20:21;-7.50;99.90
9828;DHT22;4953;48.952;9.442;2022-12-18T05:22:48;-7.50;99.90
9828;DHT22;4953;48.952;9.442;2022-12-18T05:25:15;-7.40;99.90
9828;DHT22;4953;48.952;9.442;2022-12-18T05:27:42;-7.50;99.90
9828;DHT22;4953;48.952;9.442;2022-12-18T05:30:09;-7.50;99.90
9828;DHT22;4953;48.952;9.442;2022-12-18T05:32:36;-7.50;99.90
9828;DHT22;4953;48.952;9.442;2022-12-18T05:35:06;-7.50;99.90
9828;DHT22;4953;48.952;9.442;2022-12-18T05:37:34;-7.50;99.90
9828;DHT22;4953;48.952;9.442;2022-12-18T05:40:01;-7.50;99.90
9828;DHT22;4953;48.952;9.442;2022-12-18T05:42:28;-7.50;99.90
9828;DHT22;4953;48.952;9.442;2022-12-18T05:44:54;-7.50;99.90
9828;DHT22;4953;48.952;9.442;2022-12-18T05:47:21;-7.50;99.90
9828;DHT22;4953;48.952;9.442;2022-12-18T05:49:48;-7.50;99.90
9828;DHT22;4953;48.952;9.442;2022-12-18T05:52:16;-7.50;99.90
9828;DHT22;4953;48.952;9.442;2022-12-18T05:54:43;-7.50;99.90
9828;DHT22;4953;48.952;9.442;2022-12-18T05:57:10;-7.50;99.90
9828;DHT22;4953;48.952;9.442;2022-12-18T05:59:36;-7.40;99.90
9828;DHT22;4953;48.952;9.442;2022-12-18T06:02:03;-7.40;99.90
9828;DHT22;4953;48.952;9.442;2022-12-18T06:04:30;-7.30;99.90
9828;DHT22;4953;48.952;9.442;2022-12-18T06:06:57;-7.30;99.90
9828;DHT22;4953;48.952;9.442;2022-12-18T06:09:25;-7.20;99.90
9828;DHT22;4953;48.952;9.442;2022-12-18T06:11:52;-7.20;99.90
9828;DHT22;4953;48.952;9.442;2022-12-18T06:14:19;-7.20;99.90
9828;DHT22;4953;48.952;9.442;2022-12-18T06:16:46;-7.20;99.90
9828;DHT22;4953;48.952;9.442;2022-12-18T06:19:15;-7.20;99.90
9828;DHT22;4953;48.952;9.442;2022-12-18T06:21:42;-7.30;99.90
9828;DHT22;4953;48.952;9.442;2022-12-18T06:24:09;-7.30;99.90
9828;DHT22;4953;48.952;9.442;2022-12-18T06:26:38;-7.30;99.90
9828;DHT22;4953;48.952;9.442;2022-12-18T06:29:05;-7.30;99.90
9828;DHT22;4953;48.952;9.442;2022-12-18T06:31:32;-7.40;99.90
9828;DHT22;4953;48.952;9.442;2022-12-18T06:33:59;-7.30;99.90
9828;DHT22;4953;48.952;9.442;2022-12-18T06:36:28;-7.30;99.90
9828;DHT22;4953;48.952;9.442;2022-12-18T06:38:55;-7.30;99.90
9828;DHT22;4953;48.952;9.442;2022-12-18T06:41:22;-7.30;99.90
9828;DHT22;4953;48.952;9.442;2022-12-18T06:43:50;-7.30;99.90
9828;DHT22;4953;48.952;9.442;2022-12-18T06:46:17;-7.30;99.90
9828;DHT22;4953;48.952;9.442;2022-12-18T06:48:47;-7.30;99.90
9828;DHT22;4953;48.952;9.442;2022-12-18T06:51:16;-7.30;99.90
9828;DHT22;4953;48.952;9.442;2022-12-18T06:53:43;-7.30;99.90
9828;DHT22;4953;48.952;9.442;2022-12-18T06:56:10;-7.30;99.90
9828;DHT22;4953;48.952;9.442;2022-12-18T06:58:37;-7.30;99.90
9828;DHT22;4953;48.952;9.442;2022-12-18T07:01:08;-7.30;99.90
9828;DHT22;4953;48.952;9.442;2022-12-18T07:03:35;-7.30;99.90
9828;DHT22;4953;48.952;9.442;2022-12-18T07:06:02;-7.30;99.90
9828;DHT22;4953;48.952;9.442;2022-12-18T07:08:29;-7.30;99.90
9828;DHT22;4953;48.952;9.442;2022-12-18T07:10:56;-7.30;99.90
9828;DHT22;4953;48.952;9.442;2022-12-18T07:13:23;-7.10;99.90
9828;DHT22;4953;48.952;9.442;2022-12-18T07:15:50;-7.00;99.90
9828;DHT22;4953;48.952;9.442;2022-12-18T07:18:18;-7.00;99.90
9828;DHT22;4953;48.952;9.442;2022-12-18T07:20:45;-7.00;99.90
9828;DHT22;4953;48.952;9.442;2022-12-18T07:23:11;-7.10;99.90
9828;DHT22;4953;48.952;9.442;2022-12-18T07:25:38;-7.10;99.90
9828;DHT22;4953;48.952;9.442;2022-12-18T07:28:06;-7.10;99.90
9828;DHT22;4953;48.952;9.442;2022-12-18T07:30:32;-7.10;99.90
9828;DHT22;4953;48.952;9.442;2022-12-18T07:32:59;-7.10;99.90
9828;DHT22;4953;48.952;9.442;2022-12-18T07:35:27;-7.10;99.90
9828;DHT22;4953;48.952;9.442;2022-12-18T07:37:54;-7.10;99.90
9828;DHT22;4953;48.952;9.442;2022-12-18T07:40:21;-7.10;99.90
9828;DHT22;4953;48.952;9.442;2022-12-18T07:42:48;-7.00;99.90
9828;DHT22;4953;48.952;9.442;2022-12-18T07:45:14;-7.00;99.90
9828;DHT22;4953;48.952;9.442;2022-12-18T07:47:41;-7.00;99.90
9828;DHT22;4953;48.952;9.442;2022-12-18T07:50:08;-7.00;99.90
9828;DHT22;4953;48.952;9.442;2022-12-18T07:52:36;-6.90;99.90
9828;DHT22;4953;48.952;9.442;2022-12-18T07:55:04;-6.90;99.90
9828;DHT22;4953;48.952;9.442;2022-12-18T07:57:31;-6.80;99.90
9828;DHT22;4953;48.952;9.442;2022-12-18T07:59:58;-6.80;99.90
9828;DHT22;4953;48.952;9.442;2022-12-18T08:02:24;-6.80;99.90
9828;DHT22;4953;48.952;9.442;2022-12-18T08:04:51;-6.80;99.90
9828;DHT22;4953;48.952;9.442;2022-12-18T08:07:18;-6.80;99.90
9828;DHT22;4953;48.952;9.442;2022-12-18T08:09:46;-6.70;99.90
9828;DHT22;4953;48.952;9.442;2022-12-18T08:12:13;-6.70;99.90
9828;DHT22;4953;48.952;9.442;2022-12-18T08:14:39;-6.70;99.90
9828;DHT22;4953;48.952;9.442;2022-12-18T08:17:06;-6.70;99.90
9828;DHT22;4953;48.952;9.442;2022-12-18T08:19:33;-6.70;99.90
9828;DHT22;4953;48.952;9.442;2022-12-18T08:22:00;-6.70;99.90
9828;DHT22;4953;48.952;9.442;2022-12-18T08:24:27;-6.60;99.90
9828;DHT22;4953;48.952;9.442;2022-12-18T08:26:55;-6.60;99.90
9828;DHT22;4953;48.952;9.442;2022-12-18T08:29:22;-6.60;99.90
9828;DHT22;4953;48.952;9.442;2022-12-18T08:31:49;-6.50;99.90
9828;DHT22;4953;48.952;9.442;2022-12-18T08:34:16;-6.40;99.90
9828;DHT22;4953;48.952;9.442;2022-12-18T08:36:43;-6.40;99.90
9828;DHT22;4953;48.952;9.442;2022-12-18T08:39:09;-6.30;99.90
9828;DHT22;4953;48.952;9.442;2022-12-18T08:41:36;-6.30;99.90
9828;DHT22;4953;48.952;9.442;2022-12-18T08:44:04;-6.20;99.90
9828;DHT22;4953;48.952;9.442;2022-12-18T08:46:57;-6.10;99.90
9828;DHT22;4953;48.952;9.442;2022-12-18T08:49:24;-6.00;99.90
9828;DHT22;4953;48.952;9.442;2022-12-18T08:51:54;-5.90;99.90
9828;DHT22;4953;48.952;9.442;2022-12-18T08:54:22;-5.80;99.90
9828;DHT22;4953;48.952;9.442;2022-12-18T08:56:49;-5.70;99.90
9828;DHT22;4953;48.952;9.442;2022-12-18T08:59:17;-5.60;99.90
9828;DHT22;4953;48.952;9.442;2022-12-18T09:01:45;-5.60;99.90
9828;DHT22;4953;48.952;9.442;2022-12-18T09:04:13;-5.40;99.90
9828;DHT22;4953;48.952;9.442;2022-12-18T09:06:40;-5.40;99.90
9828;DHT22;4953;48.952;9.442;2022-12-18T09:09:09;-5.20;99.90
9828;DHT22;4953;48.952;9.442;2022-12-18T09:11:36;-5.10;99.90
9828;DHT22;4953;48.952;9.442;2022-12-18T09:14:03;-5.10;99.90
9828;DHT22;4953;48.952;9.442;2022-12-18T09:16:32;-5.00;99.90
9828;DHT22;4953;48.952;9.442;2022-12-18T09:19:01;-4.90;99.90
9828;DHT22;4953;48.952;9.442;2022-12-18T09:21:30;-4.40;99.90
9828;DHT22;4953;48.952;9.442;2022-12-18T09:23:57;-4.30;99.90
9828;DHT22;4953;48.952;9.442;2022-12-18T09:26:26;-4.20;99.90
9828;DHT22;4953;48.952;9.442;2022-12-18T09:28:53;-4.10;99.90
9828;DHT22;4953;48.952;9.442;2022-12-18T09:31:22;-4.10;99.90
9828;DHT22;4953;48.952;9.442;2022-12-18T09:33:51;-4.00;99.90
9828;DHT22;4953;48.952;9.442;2022-12-18T09:36:18;-3.90;99.90
9828;DHT22;4953;48.952;9.442;2022-12-18T09:38:45;-3.80;99.90
9828;DHT22;4953;48.952;9.442;2022-12-18T09:41:26;-3.80;99.90
9828;DHT22;4953;48.952;9.442;2022-12-18T09:44:00;-3.70;99.90
9828;DHT22;4953;48.952;9.442;2022-12-18T09:46:32;-3.60;99.90
9828;DHT22;4953;48.952;9.442;2022-12-18T09:49:03;-3.50;99.90
9828;DHT22;4953;48.952;9.442;2022-12-18T09:51:37;-3.40;99.90
9828;DHT22;4953;48.952;9.442;2022-12-18T09:54:10;-3.20;99.90
9828;DHT22;4953;48.952;9.442;2022-12-18T09:56:41;-3.10;99.90
9828;DHT22;4953;48.952;9.442;2022-12-18T09:59:18;-3.00;99.90
9828;DHT22;4953;48.952;9.442;2022-12-18T10:01:47;-2.90;99.90
9828;DHT22;4953;48.952;9.442;2022-12-18T10:04:15;-2.70;99.90
9828;DHT22;4953;48.952;9.442;2022-12-18T10:06:45;-2.50;99.90
9828;DHT22;4953;48.952;9.442;2022-12-18T10:09:20;-2.40;99.90
9828;DHT22;4953;48.952;9.442;2022-12-18T10:11:55;-2.30;99.90
9828;DHT22;4953;48.952;9.442;2022-12-18T10:14:32;-2.20;99.90
9828;DHT22;4953;48.952;9.442;2022-12-18T10:17:07;-2.10;99.90
9828;DHT22;4953;48.952;9.442;2022-12-18T10:19:43;-2.00;99.90
9828;DHT22;4953;48.952;9.442;2022-12-18T10:22:32;-1.80;99.90
9828;DHT22;4953;48.952;9.442;2022-12-18T10:25:06;-1.60;99.90
9828;DHT22;4953;48.952;9.442;2022-12-18T10:27:40;-1.50;99.90
9828;DHT22;4953;48.952;9.442;2022-12-18T10:30:13;-1.20;99.90
9828;DHT22;4953;48.952;9.442;2022-12-18T10:32:41;-0.80;99.90
9828;DHT22;4953;48.952;9.442;2022-12-18T10:35:18;-0.50;99.90
9828;DHT22;4953;48.952;9.442;2022-12-18T10:38:06;-0.30;99.90
9828;DHT22;4953;48.952;9.442;2022-12-18T10:40:48;-0.10;99.90
9828;DHT22;4953;48.952;9.442;2022-12-18T10:43:20;0.00;99.90
9828;DHT22;4953;48.952;9.442;2022-12-18T10:46:03;-0.10;99.90
9828;DHT22;4953;48.952;9.442;2022-12-18T10:48:32;0.00;99.90
9828;DHT22;4953;48.952;9.442;2022-12-18T10:51:01;0.00;99.90
9828;DHT22;4953;48.952;9.442;2022-12-18T10:53:31;0.00;99.90
9828;DHT22;4953;48.952;9.442;2022-12-18T10:56:00;0.00;99.90
9828;DHT22;4953;48.952;9.442;2022-12-18T10:58:30;0.20;99.90
9828;DHT22;4953;48.952;9.442;2022-12-18T11:01:19;0.50;99.90
9828;DHT22;4953;48.952;9.442;2022-12-18T11:03:58;0.80;99.90
9828;DHT22;4953;48.952;9.442;2022-12-18T11:06:27;1.00;99.90
9828;DHT22;4953;48.952;9.442;2022-12-18T11:08:59;1.30;99.90
9828;DHT22;4953;48.952;9.442;2022-12-18T11:11:27;1.30;99.90
9828;DHT22;4953;48.952;9.442;2022-12-18T11:14:00;1.40;99.90
9828;DHT22;4953;48.952;9.442;2022-12-18T11:16:30;1.60;99.90
9828;DHT22;4953;48.952;9.442;2022-12-18T11:19:19;1.70;99.90
9828;DHT22;4953;48.952;9.442;2022-12-18T11:21:49;1.70;99.90
9828;DHT22;4953;48.952;9.442;2022-12-18T11:24:20;1.80;99.90
9828;DHT22;4953;48.952;9.442;2022-12-18T11:26:49;2.00;99.90
9828;DHT22;4953;48.952;9.442;2022-12-18T11:29:18;2.10;99.90
9828;DHT22;4953;48.952;9.442;2022-12-18T11:31:49;2.30;99.90
9828;DHT22;4953;48.952;9.442;2022-12-18T11:34:20;2.20;99.90
9828;DHT22;4953;48.952;9.442;2022-12-18T11:36:51;2.10;99.90
9828;DHT22;4953;48.952;9.442;2022-12-18T11:39:23;2.00;99.90
9828;DHT22;4953;48.952;9.442;2022-12-18T11:41:53;2.20;99.90
9828;DHT22;4953;48.952;9.442;2022-12-18T11:44:42;2.40;99.90
9828;DHT22;4953;48.952;9.442;2022-12-18T11:47:19;2.70;99.90
9828;DHT22;4953;48.952;9.442;2022-12-18T11:49:49;2.90;99.90
9828;DHT22;4953;48.952;9.442;2022-12-18T11:52:21;3.00;99.90
9828;DHT22;4953;48.952;9.442;2022-12-18T11:54:51;3.00;99.90
9828;DHT22;4953;48.952;9.442;2022-12-18T11:57:27;2.90;99.90
9828;DHT22;4953;48.952;9.442;2022-12-18T12:00:07;2.90;99.90
9828;DHT22;4953;48.952;9.442;2022-12-18T12:03:03;2.90;99.90
9828;DHT22;4953;48.952;9.442;2022-12-18T12:05:45;3.10;99.90
9828;DHT22;4953;48.952;9.442;2022-12-18T12:08:22;3.30;99.90
9828;DHT22;4953;48.952;9.442;2022-12-18T12:10:59;3.50;99.90
9828;DHT22;4953;48.952;9.442;2022-12-18T12:13:39;3.30;99.90
9828;DHT22;4953;48.952;9.442;2022-12-18T12:16:14;3.20;99.90
9828;DHT22;4953;48.952;9.442;2022-12-18T12:18:53;3.10;99.90
9828;DHT22;4953;48.952;9.442;2022-12-18T12:21:26;3.10;99.90
9828;DHT22;4953;48.952;9.442;2022-12-18T12:23:59;3.10;99.90
9828;DHT22;4953;48.952;9.442;2022-12-18T12:26:35;3.00;99.90
9828;DHT22;4953;48.952;9.442;2022-12-18T12:29:11;2.90;99.90
9828;DHT22;4953;48.952;9.442;2022-12-18T12:31:52;3.00;99.90
9828;DHT22;4953;48.952;9.442;2022-12-18T12:34:25;3.20;99.90
9828;DHT22;4953;48.952;9.442;2022-12-18T12:37:11;3.40;99.90
9828;DHT22;4953;48.952;9.442;2022-12-18T12:39:44;3.60;99.90
9828;DHT22;4953;48.952;9.442;2022-12-18T12:42:19;3.70;99.90
9828;DHT22;4953;48.952;9.442;2022-12-18T12:45:06;3.80;99.90
9828;DHT22;4953;48.952;9.442;2022-12-18T12:47:42;3.60;99.90
9828;DHT22;4953;48.952;9.442;2022-12-18T12:50:15;3.80;99.90
9828;DHT22;4953;48.952;9.442;2022-12-18T12:52:46;3.90;99.90
9828;DHT22;4953;48.952;9.442;2022-12-18T12:55:18;3.80;99.90
9828;DHT22;4953;48.952;9.442;2022-12-18T12:57:51;3.60;99.90
9828;DHT22;4953;48.952;9.442;2022-12-18T13:00:20;3.50;99.90
9828;DHT22;4953;48.952;9.442;2022-12-18T13:02:50;3.40;99.90
9828;DHT22;4953;48.952;9.442;2022-12-18T13:05:22;3.30;99.90
9828;DHT22;4953;48.952;9.442;2022-12-18T13:07:53;3.30;99.90
9828;DHT22;4953;48.952;9.442;2022-12-18T13:10:36;3.20;99.90
9828;DHT22;4953;48.952;9.442;2022-12-18T13:13:04;3.00;99.90
9828;DHT22;4953;48.952;9.442;2022-12-18T13:15:36;3.00;99.90
9828;DHT22;4953;48.952;9.442;2022-12-18T13:18:11;3.00;99.90
9828;DHT22;4953;48.952;9.442;2022-12-18T13:20:40;3.10;99.90
9828;DHT22;4953;48.952;9.442;2022-12-18T13:23:29;2.90;99.90
9828;DHT22;4953;48.952;9.442;2022-12-18T13:25:59;2.80;99.90
9828;DHT22;4953;48.952;9.442;2022-12-18T13:28:53;2.60;99.90
9828;DHT22;4953;48.952;9.442;2022-12-18T13:34:33;2.60;99.90
9828;DHT22;4953;48.952;9.442;2022-12-18T13:43:27;2.50;99.90
9828;DHT22;4953;48.952;9.442;2022-12-18T13:46:06;2.50;99.90
9828;DHT22;4953;48.952;9.442;2022-12-18T13:48:50;2.40;99.90
9828;DHT22;4953;48.952;9.442;2022-12-18T13:51:19;2.40;99.90
9828;DHT22;4953;48.952;9.442;2022-12-18T13:53:49;2.50;99.90
9828;DHT22;4953;48.952;9.442;2022-12-18T13:56:16;2.40;99.90
9828;DHT22;4953;48.952;9.442;2022-12-18T13:58:45;2.40;99.90
9828;DHT22;4953;48.952;9.442;2022-12-18T14:01:29;2.50;99.90
9828;DHT22;4953;48.952;9.442;2022-12-18T14:04:09;2.40;99.90
9828;DHT22;4953;48.952;9.442;2022-12-18T14:06:36;2.30;99.90
9828;DHT22;4953;48.952;9.442;2022-12-18T14:09:03;2.30;99.90
9828;DHT22;4953;48.952;9.442;2022-12-18T14:11:30;2.20;99.90
9828;DHT22;4953;48.952;9.442;2022-12-18T14:13:58;2.10;99.90
9828;DHT22;4953;48.952;9.442;2022-12-18T14:16:25;2.10;99.90
9828;DHT22;4953;48.952;9.442;2022-12-18T14:18:55;2.10;99.90
9828;DHT22;4953;48.952;9.442;2022-12-18T14:21:26;2.00;99.90
9828;DHT22;4953;48.952;9.442;2022-12-18T14:24:12;2.00;99.90
9828;DHT22;4953;48.952;9.442;2022-12-18T14:26:40;1.90;99.90
9828;DHT22;4953;48.952;9.442;2022-12-18T14:29:26;1.90;99.90
9828;DHT22;4953;48.952;9.442;2022-12-18T14:32:10;2.00;99.90
9828;DHT22;4953;48.952;9.442;2022-12-18T14:34:37;2.00;99.90
9828;DHT22;4953;48.952;9.442;2022-12-18T14:37:04;1.90;99.90
9828;DHT22;4953;48.952;9.442;2022-12-18T14:39:32;1.80;99.90
9828;DHT22;4953;48.952;9.442;2022-12-18T14:41:59;1.70;99.90
9828;DHT22;4953;48.952;9.442;2022-12-18T14:44:27;1.60;99.90
9828;DHT22;4953;48.952;9.442;2022-12-18T14:46:55;1.50;99.90
9828;DHT22;4953;48.952;9.442;2022-12-18T14:49:26;1.50;99.90
9828;DHT22;4953;48.952;9.442;2022-12-18T14:51:55;1.40;99.90
9828;DHT22;4953;48.952;9.442;2022-12-18T14:54:23;1.30;99.90
9828;DHT22;4953;48.952;9.442;2022-12-18T14:56:51;1.30;99.90
9828;DHT22;4953;48.952;9.442;2022-12-18T14:59:23;1.20;99.90
9828;DHT22;4953;48.952;9.442;2022-12-18T15:01:58;1.20;99.90
9828;DHT22;4953;48.952;9.442;2022-12-18T15:04:28;1.10;99.90
9828;DHT22;4953;48.952;9.442;2022-12-18T15:07:08;1.00;99.90
9828;DHT22;4953;48.952;9.442;2022-12-18T15:09:37;0.90;99.90
9828;DHT22;4953;48.952;9.442;2022-12-18T15:12:04;0.90;99.90
9828;DHT22;4953;48.952;9.442;2022-12-18T15:14:34;0.90;99.90
9828;DHT22;4953;48.952;9.442;2022-12-18T15:17:05;0.90;99.90
9828;DHT22;4953;48.952;9.442;2022-12-18T15:19:37;0.80;99.90
9828;DHT22;4953;48.952;9.442;2022-12-18T15:22:11;0.70;99.90
9828;DHT22;4953;48.952;9.442;2022-12-18T15:24:39;0.70;99.90
9828;DHT22;4953;48.952;9.442;2022-12-18T15:27:29;0.80;99.90
9828;DHT22;4953;48.952;9.442;2022-12-18T15:30:17;0.70;99.90
9828;DHT22;4953;48.952;9.442;2022-12-18T15:32:46;0.70;99.90
9828;DHT22;4953;48.952;9.442;2022-12-18T15:35:16;0.60;99.90
9828;DHT22;4953;48.952;9.442;2022-12-18T15:37:43;0.50;99.90
9828;DHT22;4953;48.952;9.442;2022-12-18T15:40:12;0.50;99.90
9828;DHT22;4953;48.952;9.442;2022-12-18T15:42:39;0.40;99.90
9828;DHT22;4953;48.952;9.442;2022-12-18T15:45:24;0.40;99.90
9828;DHT22;4953;48.952;9.442;2022-12-18T15:47:52;0.30;99.90
9828;DHT22;4953;48.952;9.442;2022-12-18T15:50:19;0.30;99.90
9828;DHT22;4953;48.952;9.442;2022-12-18T15:52:47;0.20;99.90
9828;DHT22;4953;48.952;9.442;2022-12-18T15:55:17;0.10;99.90
9828;DHT22;4953;48.952;9.442;2022-12-18T15:58:02;0.10;99.90
9828;DHT22;4953;48.952;9.442;2022-12-18T16:00:29;0.10;99.90
9828;DHT22;4953;48.952;9.442;2022-12-18T16:02:57;0.00;99.90
9828;DHT22;4953;48.952;9.442;2022-12-18T16:05:24;0.00;99.90
9828;DHT22;4953;48.952;9.442;2022-12-18T16:07:52;0.00;99.90
9828;DHT22;4953;48.952;9.442;2022-12-18T16:10:19;-0.10;99.90
9828;DHT22;4953;48.952;9.442;2022-12-18T16:12:46;-0.10;99.90
9828;DHT22;4953;48.952;9.442;2022-12-18T16:15:14;-0.20;99.90
9828;DHT22;4953;48.952;9.442;2022-12-18T16:17:41;-0.20;99.90
9828;DHT22;4953;48.952;9.442;2022-12-18T16:20:12;-0.30;99.90
9828;DHT22;4953;48.952;9.442;2022-12-18T16:22:42;-0.30;99.90
9828;DHT22;4953;48.952;9.442;2022-12-18T16:25:18;-0.30;99.90
9828;DHT22;4953;48.952;9.442;2022-12-18T16:27:49;-0.40;99.90
9828;DHT22;4953;48.952;9.442;2022-12-18T16:30:17;-0.40;99.90
9828;DHT22;4953;48.952;9.442;2022-12-18T16:32:44;-0.40;99.90
9828;DHT22;4953;48.952;9.442;2022-12-18T16:35:14;-0.40;99.90
9828;DHT22;4953;48.952;9.442;2022-12-18T16:37:41;-0.50;99.90
9828;DHT22;4953;48.952;9.442;2022-12-18T16:40:11;-0.50;99.90
9828;DHT22;4953;48.952;9.442;2022-12-18T16:42:39;-0.50;99.90
9828;DHT22;4953;48.952;9.442;2022-12-18T16:45:07;-0.50;99.90
9828;DHT22;4953;48.952;9.442;2022-12-18T16:47:34;-0.50;99.90
9828;DHT22;4953;48.952;9.442;2022-12-18T16:50:01;-0.60;99.90
9828;DHT22;4953;48.952;9.442;2022-12-18T16:52:29;-0.70;99.90
9828;DHT22;4953;48.952;9.442;2022-12-18T16:54:56;-0.70;99.90
9828;DHT22;4953;48.952;9.442;2022-12-18T16:57:23;-0.80;99.90
9828;DHT22;4953;48.952;9.442;2022-12-18T16:59:50;-0.80;99.90
9828;DHT22;4953;48.952;9.442;2022-12-18T17:02:18;-0.90;99.90
9828;DHT22;4953;48.952;9.442;2022-12-18T17:04:46;-0.90;99.90
9828;DHT22;4953;48.952;9.442;2022-12-18T17:07:13;-0.80;99.90
9828;DHT22;4953;48.952;9.442;2022-12-18T17:09:41;-0.80;99.90
9828;DHT22;4953;48.952;9.442;2022-12-18T17:12:09;-0.90;99.90
9828;DHT22;4953;48.952;9.442;2022-12-18T17:14:36;-0.90;99.90
9828;DHT22;4953;48.952;9.442;2022-12-18T17:17:03;-0.90;99.90
9828;DHT22;4953;48.952;9.442;2022-12-18T17:19:30;-0.90;99.90
9828;DHT22;4953;48.952;9.442;2022-12-18T17:21:57;-0.90;99.90
9828;DHT22;4953;48.952;9.442;2022-12-18T17:24:24;-0.90;99.90
9828;DHT22;4953;48.952;9.442;2022-12-18T17:26:52;-0.90;99.90
9828;DHT22;4953;48.952;9.442;2022-12-18T17:29:19;-0.90;99.90
9828;DHT22;4953;48.952;9.442;2022-12-18T17:31:47;-0.90;99.90
9828;DHT22;4953;48.952;9.442;2022-12-18T17:34:14;-1.00;99.90
9828;DHT22;4953;48.952;9.442;2022-12-18T17:36:41;-1.00;99.90
9828;DHT22;4953;48.952;9.442;2022-12-18T17:39:16;-1.00;99.90
9828;DHT22;4953;48.952;9.442;2022-12-18T17:41:44;-1.10;99.90
9828;DHT22;4953;48.952;9.442;2022-12-18T17:44:12;-1.10;99.90
9828;DHT22;4953;48.952;9.442;2022-12-18T17:46:39;-1.20;99.90
9828;DHT22;4953;48.952;9.442;2022-12-18T17:49:06;-1.30;99.90
9828;DHT22;4953;48.952;9.442;2022-12-18T17:51:33;-1.30;99.90
9828;DHT22;4953;48.952;9.442;2022-12-18T17:54:00;-1.40;99.90
9828;DHT22;4953;48.952;9.442;2022-12-18T17:56:27;-1.40;99.90
9828;DHT22;4953;48.952;9.442;2022-12-18T17:58:54;-1.50;99.90
9828;DHT22;4953;48.952;9.442;2022-12-18T18:01:24;-1.50;99.90
9828;DHT22;4953;48.952;9.442;2022-12-18T18:03:51;-1.50;99.90
9828;DHT22;4953;48.952;9.442;2022-12-18T18:06:20;-1.50;99.90
9828;DHT22;4953;48.952;9.442;2022-12-18T18:08:47;-1.40;99.90
9828;DHT22;4953;48.952;9.442;2022-12-18T18:11:16;-1.40;99.90
9828;DHT22;4953;48.952;9.442;2022-12-18T18:14:02;-1.40;99.90
9828;DHT22;4953;48.952;9.442;2022-12-18T18:16:35;-1.40;99.90
9828;DHT22;4953;48.952;9.442;2022-12-18T18:19:04;-1.40;99.90
9828;DHT22;4953;48.952;9.442;2022-12-18T18:21:31;-1.30;99.90
9828;DHT22;4953;48.952;9.442;2022-12-18T18:23:59;-1.30;99.90
9828;DHT22;4953;48.952;9.442;2022-12-18T18:26:26;-1.30;99.90
9828;DHT22;4953;48.952;9.442;2022-12-18T18:28:56;-1.30;99.90
9828;DHT22;4953;48.952;9.442;2022-12-18T18:31:23;-1.40;99.90
9828;DHT22;4953;48.952;9.442;2022-12-18T18:33:51;-1.40;99.90
9828;DHT22;4953;48.952;9.442;2022-12-18T18:36:18;-1.40;99.90
9828;DHT22;4953;48.952;9.442;2022-12-18T18:38:45;-1.40;99.90
9828;DHT22;4953;48.952;9.442;2022-12-18T18:41:12;-1.50;99.90
9828;DHT22;4953;48.952;9.442;2022-12-18T18:43:39;-1.50;99.90
9828;DHT22;4953;48.952;9.442;2022-12-18T18:46:06;-1.50;99.90
9828;DHT22;4953;48.952;9.442;2022-12-18T18:48:35;-1.50;99.90
9828;DHT22;4953;48.952;9.442;2022-12-18T18:51:05;-1.60;99.90
9828;DHT22;4953;48.952;9.442;2022-12-18T18:53:35;-1.50;99.90
9828;DHT22;4953;48.952;9.442;2022-12-18T18:56:02;-1.50;99.90
9828;DHT22;4953;48.952;9.442;2022-12-18T18:58:29;-1.40;99.90
9828;DHT22;4953;48.952;9.442;2022-12-18T19:00:57;-1.40;99.90
9828;DHT22;4953;48.952;9.442;2022-12-18T19:03:24;-1.40;99.90
9828;DHT22;4953;48.952;9.442;2022-12-18T19:05:52;-1.40;99.90
9828;DHT22;4953;48.952;9.442;2022-12-18T19:08:22;-1.40;99.90
9828;DHT22;4953;48.952;9.442;2022-12-18T19:10:50;-1.30;99.90
9828;DHT22;4953;48.952;9.442;2022-12-18T19:13:18;-1.40;99.90
9828;DHT22;4953;48.952;9.442;2022-12-18T19:15:47;-1.40;99.90
9828;DHT22;4953;48.952;9.442;2022-12-18T19:18:14;-1.30;99.90
9828;DHT22;4953;48.952;9.442;2022-12-18T19:20:41;-1.30;99.90
9828;DHT22;4953;48.952;9.442;2022-12-18T19:23:08;-1.30;99.90
9828;DHT22;4953;48.952;9.442;2022-12-18T19:25:38;-1.30;99.90
9828;DHT22;4953;48.952;9.442;2022-12-18T19:28:05;-1.40;99.90
9828;DHT22;4953;48.952;9.442;2022-12-18T19:30:31;-1.40;99.90
9828;DHT22;4953;48.952;9.442;2022-12-18T19:32:58;-1.40;99.90
9828;DHT22;4953;48.952;9.442;2022-12-18T19:35:28;-1.40;99.90
9828;DHT22;4953;48.952;9.442;2022-12-18T19:37:55;-1.40;99.90
9828;DHT22;4953;48.952;9.442;2022-12-18T19:40:21;-1.30;99.90
9828;DHT22;4953;48.952;9.442;2022-12-18T19:42:50;-1.30;99.90
9828;DHT22;4953;48.952;9.442;2022-12-18T19:45:17;-1.30;99.90
9828;DHT22;4953;48.952;9.442;2022-12-18T19:47:44;-1.20;99.90
9828;DHT22;4953;48.952;9.442;2022-12-18T19:50:10;-1.30;99.90
9828;DHT22;4953;48.952;9.442;2022-12-18T19:52:40;-1.40;99.90
9828;DHT22;4953;48.952;9.442;2022-12-18T19:55:08;-1.50;99.90
9828;DHT22;4953;48.952;9.442;2022-12-18T19:57:35;-1.50;99.90
9828;DHT22;4953;48.952;9.442;2022-12-18T20:00:04;-1.50;99.90
9828;DHT22;4953;48.952;9.442;2022-12-18T20:02:33;-1.50;99.90
9828;DHT22;4953;48.952;9.442;2022-12-18T20:05:04;-1.50;99.90
9828;DHT22;4953;48.952;9.442;2022-12-18T20:07:31;-1.60;99.90
9828;DHT22;4953;48.952;9.442;2022-12-18T20:09:58;-1.70;99.90
9828;DHT22;4953;48.952;9.442;2022-12-18T20:12:25;-1.70;99.90
9828;DHT22;4953;48.952;9.442;2022-12-18T20:14:52;-1.70;99.90
9828;DHT22;4953;48.952;9.442;2022-12-18T20:17:20;-1.70;99.90
9828;DHT22;4953;48.952;9.442;2022-12-18T20:19:47;-1.70;99.90
9828;DHT22;4953;48.952;9.442;2022-12-18T20:22:14;-1.70;99.90
9828;DHT22;4953;48.952;9.442;2022-12-18T20:24:41;-1.60;99.90
9828;DHT22;4953;48.952;9.442;2022-12-18T20:27:08;-1.60;99.90
9828;DHT22;4953;48.952;9.442;2022-12-18T20:29:36;-1.60;99.90
9828;DHT22;4953;48.952;9.442;2022-12-18T20:32:04;-1.60;99.90
9828;DHT22;4953;48.952;9.442;2022-12-18T20:34:32;-1.60;99.90
9828;DHT22;4953;48.952;9.442;2022-12-18T20:36:59;-1.50;99.90
9828;DHT22;4953;48.952;9.442;2022-12-18T20:39:26;-1.60;99.90
9828;DHT22;4953;48.952;9.442;2022-12-18T20:41:53;-1.50;99.90
9828;DHT22;4953;48.952;9.442;2022-12-18T20:44:22;-1.50;99.90
9828;DHT22;4953;48.952;9.442;2022-12-18T20:46:53;-1.40;99.90
9828;DHT22;4953;48.952;9.442;2022-12-18T20:49:21;-1.40;99.90
9828;DHT22;4953;48.952;9.442;2022-12-18T20:51:51;-1.40;99.90
9828;DHT22;4953;48.952;9.442;2022-12-18T20:54:18;-1.40;99.90
9828;DHT22;4953;48.952;9.442;2022-12-18T20:56:45;-1.40;99.90
9828;DHT22;4953;48.952;9.442;2022-12-18T20:59:12;-1.40;99.90
9828;DHT22;4953;48.952;9.442;2022-12-18T21:01:39;-1.40;99.90
9828;DHT22;4953;48.952;9.442;2022-12-18T21:04:06;-1.40;99.90
9828;DHT22;4953;48.952;9.442;2022-12-18T21:06:33;-1.40;99.90
9828;DHT22;4953;48.952;9.442;2022-12-18T21:09:02;-1.50;99.90
9828;DHT22;4953;48.952;9.442;2022-12-18T21:11:30;-1.50;99.90
9828;DHT22;4953;48.952;9.442;2022-12-18T21:14:16;-1.50;99.90
9828;DHT22;4953;48.952;9.442;2022-12-18T21:16:44;-1.50;99.90
9828;DHT22;4953;48.952;9.442;2022-12-18T21:19:12;-1.50;99.90
9828;DHT22;4953;48.952;9.442;2022-12-18T21:21:40;-1.50;99.90
9828;DHT22;4953;48.952;9.442;2022-12-18T21:24:08;-1.60;99.90
9828;DHT22;4953;48.952;9.442;2022-12-18T21:26:36;-1.60;99.90
9828;DHT22;4953;48.952;9.442;2022-12-18T21:29:05;-1.70;99.90
9828;DHT22;4953;48.952;9.442;2022-12-18T21:31:34;-1.80;99.90
9828;DHT22;4953;48.952;9.442;2022-12-18T21:34:02;-1.70;99.90